Time;durP1;ratioP1;P1;durP2;ratioP2;P2;SDS_P1;SDS_P2;PMS_P1;PMS_P2;Temp;Humidity;BMP_temperature;BMP_pressure;BME280_temperature;BME280_humidity;BME280_pressure;Samples;Min_cycle;Max_cycle;Signal;HPM_P1;HPM_P2
2022/04/30 00:02:15;;;;;;;7.30;4.20;;;;;;;7.72;30.29;101636.94;10039314;29;20569;-82
2022/04/30 00:07:20;;;;;;;6.10;4.60;;;;;;;6.73;31.87;101642.28;10042819;29;20239;-81
2022/04/30 00:12:23;;;;;;;6.23;4.13;;;;;;;6.65;31.69;101648.78;10042499;29;20203;-82
2022/04/30 00:17:25;;;;;;;7.60;4.80;;;;;;;7.46;30.70;101645.47;10039331;29;20508;-81
2022/04/30 00:22:29;;;;;;;5.33;4.50;;;;;;;7.01;31.04;101639.19;10025459;29;20314;-81
2022/04/30 00:27:34;;;;;;;8.40;4.23;;;;;;;7.67;30.69;101635.06;10045677;29;20306;-87
2022/04/30 00:32:37;;;;;;;7.40;4.23;;;;;;;6.67;31.99;101639.94;10043931;29;20199;-86
2022/04/30 00:37:39;;;;;;;8.87;4.20;;;;;;;6.75;31.84;101630.63;10074612;29;20247;-81
2022/04/30 00:42:42;;;;;;;5.57;4.50;;;;;;;7.81;30.49;101620.69;10026209;29;20235;-82
2022/04/30 00:47:44;;;;;;;5.90;4.10;;;;;;;8.04;30.17;101621.34;10022757;29;20267;-83
2022/04/30 00:52:47;;;;;;;6.67;4.57;;;;;;;6.94;31.22;101628.34;10039071;29;20207;-82
2022/04/30 00:57:54;;;;;;;8.13;4.33;;;;;;;6.95;31.51;101627.19;10048296;29;20194;-82
2022/04/30 01:02:56;;;;;;;7.93;4.10;;;;;;;7.12;31.52;101618.66;10056889;29;20203;-84
2022/04/30 01:08:27;;;;;;;5.33;4.57;;;;;;;6.74;31.83;101624.13;10037755;29;20270;-82
2022/04/30 01:13:33;;;;;;;6.97;4.70;;;;;;;7.39;31.09;101616.72;10058444;29;20279;-82
2022/04/30 01:18:36;;;;;;;6.77;4.73;;;;;;;6.91;31.76;101621.31;10038379;29;20238;-83
2022/04/30 01:23:42;;;;;;;5.23;4.23;;;;;;;7.15;31.33;101605.81;10042548;29;20250;-82
2022/04/30 01:28:45;;;;;;;7.33;5.00;;;;;;;6.59;32.30;101599.03;10046483;29;20554;-83
2022/04/30 01:39:07;;;;;;;4.67;3.80;;;;;;;6.98;31.68;101600.97;10042130;29;20474;-83
2022/04/30 01:44:10;;;;;;;6.97;4.30;;;;;;;6.51;32.40;101591.34;10046053;29;20597;-82
2022/04/30 01:49:16;;;;;;;4.77;3.83;;;;;;;6.71;31.87;101585.06;10045730;29;20214;-85
2022/04/30 01:54:18;;;;;;;5.47;4.40;;;;;;;6.65;31.89;101585.56;10050639;29;20203;-82
2022/04/30 01:59:21;;;;;;;6.37;4.60;;;;;;;7.00;31.33;101581.63;10059919;29;20305;-82
2022/04/30 02:04:23;;;;;;;8.03;4.13;;;;;;;6.99;31.51;101585.63;10036674;29;20486;-81
2022/04/30 02:09:28;;;;;;;6.87;3.43;;;;;;;6.76;31.78;101575.56;10013608;29;20708;-84
2022/04/30 02:14:30;;;;;;;6.73;3.73;;;;;;;7.36;31.13;101569.13;10052654;29;20210;-82
2022/04/30 02:20:18;;;;;;;8.37;3.77;;;;;;;6.87;31.51;101562.75;10045591;29;20260;-83
2022/04/30 02:24:59;;;;;;;6.30;3.90;;;;;;;6.97;30.98;101573.75;10039743;29;20198;-80
2022/04/30 02:30:04;;;;;;;5.33;3.53;;;;;;;6.27;32.48;101569.06;10045996;29;20207;-82
2022/04/30 02:35:08;;;;;;;7.37;4.10;;;;;;;7.00;31.37;101553.25;10030501;29;20199;-82
2022/04/30 02:40:13;;;;;;;6.93;3.90;;;;;;;6.65;31.83;101557.22;10034852;29;20218;-80
2022/04/30 02:45:15;;;;;;;7.60;4.70;;;;;;;6.41;32.34;101557.63;10049742;29;20263;-80
2022/04/30 02:50:18;;;;;;;6.90;4.30;;;;;;;6.83;31.36;101553.25;10069040;29;20203;-82
2022/04/30 02:55:21;;;;;;;5.67;4.17;;;;;;;6.47;32.10;101548.63;10052100;29;20195;-82
2022/04/30 03:00:24;;;;;;;5.73;4.23;;;;;;;6.92;31.36;101549.25;10053226;29;20508;-80
2022/04/30 03:05:53;;;;;;;6.83;3.83;;;;;;;6.22;32.17;101544.53;10036387;29;20627;-80
2022/04/30 03:10:56;;;;;;;6.07;3.73;;;;;;;6.54;31.90;101546.19;10059172;29;20202;-80
2022/04/30 03:21:41;;;;;;;4.47;3.40;;;;;;;6.40;32.24;101538.94;10053272;29;20658;-81
2022/04/30 03:21:42;;;;;;;5.47;3.43;;;;;;;5.87;32.72;101542.72;10055700;29;20291;-80
2022/04/30 03:26:45;;;;;;;8.00;3.87;;;;;;;5.83;32.88;101542.53;10028806;29;20295;-81
2022/04/30 03:31:49;;;;;;;5.47;3.57;;;;;;;5.69;33.21;101538.97;10050774;29;20207;-81
2022/04/30 03:36:51;;;;;;;10.67;4.30;;;;;;;6.39;32.42;101537.28;10050483;29;20258;-82
2022/04/30 03:41:53;;;;;;;5.57;3.50;;;;;;;6.01;32.89;101537.81;10050780;29;20232;-80
2022/04/30 03:46:55;;;;;;;7.83;4.17;;;;;;;6.21;32.70;101537.22;10073750;29;20225;-81
2022/04/30 03:51:57;;;;;;;8.90;4.00;;;;;;;6.28;32.32;101531.06;10054336;29;20206;-82
2022/04/30 03:56:59;;;;;;;5.70;3.80;;;;;;;6.61;31.98;101540.00;10082995;29;20206;-82
2022/04/30 04:02:02;;;;;;;7.20;4.10;;;;;;;6.35;32.50;101541.91;10078360;29;20520;-80
2022/04/30 04:07:04;;;;;;;6.67;4.53;;;;;;;6.12;33.20;101544.84;10060453;29;20218;-81
2022/04/30 04:12:07;;;;;;;9.00;4.30;;;;;;;6.30;32.79;101539.25;10025580;29;20211;-87
2022/04/30 04:22:30;;;;;;;8.50;4.90;;;;;;;6.25;32.60;101538.22;10074968;29;20500;-86
2022/04/30 04:27:32;;;;;;;6.87;4.10;;;;;;;6.41;32.03;101541.44;10050305;29;20289;-83
2022/04/30 04:32:35;;;;;;;12.37;4.90;;;;;;;6.02;32.77;101545.16;10079577;29;20210;-82
2022/04/30 04:37:37;;;;;;;6.37;4.10;;;;;;;5.72;33.60;101540.31;10056126;29;20215;-85
2022/04/30 04:42:40;;;;;;;7.30;5.00;;;;;;;5.68;33.60;101545.75;10053018;29;20600;-81
2022/04/30 04:47:45;;;;;;;8.30;4.83;;;;;;;5.74;33.66;101550.16;10033646;29;20573;-83
2022/04/30 04:52:47;;;;;;;6.70;4.47;;;;;;;5.64;33.61;101564.56;10049464;29;20206;-83
2022/04/30 04:57:49;;;;;;;7.03;4.50;;;;;;;5.85;33.53;101562.03;10049743;29;20203;-82
2022/04/30 05:02:54;;;;;;;5.57;4.03;;;;;;;6.20;32.68;101568.69;10039721;29;20235;-82
2022/04/30 05:07:56;;;;;;;8.90;4.40;;;;;;;5.35;34.14;101576.34;10056795;29;20636;-82
2022/04/30 05:12:58;;;;;;;7.13;4.90;;;;;;;5.82;33.39;101572.00;10049012;29;20236;-83
2022/04/30 05:18:01;;;;;;;7.73;4.90;;;;;;;5.51;33.83;101568.31;10045466;29;20230;-82
2022/04/30 05:23:04;;;;;;;8.37;5.10;;;;;;;6.22;33.12;101574.88;10050168;29;20203;-81
2022/04/30 05:28:10;;;;;;;7.53;4.80;;;;;;;5.81;33.89;101578.84;10048749;29;20282;-82
2022/04/30 05:33:12;;;;;;;7.80;4.83;;;;;;;6.02;33.16;101569.81;10076797;29;20214;-82
2022/04/30 05:38:14;;;;;;;7.33;4.67;;;;;;;5.74;33.59;101581.31;10043470;29;20292;-82
2022/04/30 05:43:16;;;;;;;8.00;4.33;;;;;;;6.19;33.01;101578.34;10048578;29;20262;-82
2022/04/30 05:48:18;;;;;;;9.37;4.50;;;;;;;6.22;33.41;101583.38;10044053;29;20287;-82
2022/04/30 05:53:21;;;;;;;5.73;4.23;;;;;;;6.30;33.34;101585.44;10056509;29;20271;-85
2022/04/30 05:58:23;;;;;;;9.87;4.90;;;;;;;5.98;33.44;101585.75;10066792;29;20250;-83
2022/04/30 06:03:25;;;;;;;6.00;4.37;;;;;;;6.20;33.52;101591.38;10046023;29;20210;-82
2022/04/30 06:08:27;;;;;;;8.07;4.60;;;;;;;6.25;33.51;101599.72;10079321;29;20278;-83
2022/04/30 06:13:30;;;;;;;9.13;4.70;;;;;;;6.52;33.21;101588.19;10082822;29;20201;-82
2022/04/30 06:18:32;;;;;;;7.47;4.43;;;;;;;6.71;32.95;101598.41;10074794;29;20229;-84
2022/04/30 06:23:34;;;;;;;9.20;4.20;;;;;;;6.47;33.60;101593.97;10046357;29;20198;-82
2022/04/30 06:28:36;;;;;;;7.53;3.90;;;;;;;6.78;32.83;101587.44;10046359;29;20290;-82
2022/04/30 06:33:39;;;;;;;9.17;4.93;;;;;;;6.23;33.88;101593.56;10064325;29;20205;-84
2022/04/30 06:38:41;;;;;;;6.80;4.63;;;;;;;7.29;32.22;101593.19;10073660;29;20198;-85
2022/04/30 06:43:43;;;;;;;12.50;6.03;;;;;;;7.15;32.45;101601.00;10084220;29;20207;-82
2022/04/30 06:48:45;;;;;;;10.57;5.43;;;;;;;7.30;33.15;101599.69;10055887;29;20218;-82
2022/04/30 06:59:11;;;;;;;12.53;4.87;;;;;;;7.56;32.59;101589.16;10064232;29;20496;-81
2022/04/30 07:04:14;;;;;;;9.37;4.57;;;;;;;6.84;33.83;101589.75;10056279;29;20236;-82
2022/04/30 07:09:16;;;;;;;8.10;4.87;;;;;;;7.89;31.99;101583.72;10063321;29;20632;-81
2022/04/30 07:14:18;;;;;;;5.83;5.17;;;;;;;7.63;32.09;101585.78;10048437;29;20214;-83
2022/04/30 07:19:21;;;;;;;7.33;5.13;;;;;;;6.96;32.55;101581.44;10063215;29;20225;-83
2022/04/30 07:24:23;;;;;;;10.23;6.87;;;;;;;7.36;32.11;101578.47;10078176;29;20205;-84
2022/04/30 07:29:25;;;;;;;9.53;8.20;;;;;;;6.82;32.62;101582.78;10058463;29;20271;-84
2022/04/30 07:34:27;;;;;;;9.70;6.10;;;;;;;6.80;33.15;101587.94;10033961;29;20227;-81
2022/04/30 07:39:30;;;;;;;9.53;6.33;;;;;;;7.66;31.02;101576.59;10062986;29;20189;-84
2022/04/30 07:44:32;;;;;;;5.80;4.97;;;;;;;8.16;30.17;101578.84;10065187;29;20195;-80
2022/04/30 07:49:34;;;;;;;8.10;5.73;;;;;;;8.28;30.59;101578.94;10066571;29;20246;-81
2022/04/30 07:54:40;;;;;;;10.30;5.00;;;;;;;7.33;31.80;101579.16;10059466;29;20299;-81
2022/04/30 07:59:44;;;;;;;6.60;4.10;;;;;;;7.54;30.63;101573.63;10058625;29;20199;-81
2022/04/30 08:04:46;;;;;;;5.10;3.37;;;;;;;7.27;30.39;101574.81;10059339;29;20286;-84
2022/04/30 08:09:49;;;;;;;4.63;3.30;;;;;;;7.91;29.27;101572.88;10043301;29;20258;-81
2022/04/30 08:14:51;;;;;;;3.57;2.97;;;;;;;8.20;29.06;101569.28;10067468;29;20562;-81
2022/04/30 08:19:53;;;;;;;4.03;3.17;;;;;;;7.65;29.07;101570.09;10041264;29;20234;-81
2022/04/30 08:24:55;;;;;;;4.47;2.47;;;;;;;9.31;27.58;101569.75;10033081;29;20210;-82
2022/04/30 08:29:57;;;;;;;3.53;2.70;;;;;;;9.29;27.69;101566.44;10031227;29;20790;-83
2022/04/30 08:35:01;;;;;;;8.80;5.00;;;;;;;8.95;28.08;101561.00;10029766;29;20214;-82
2022/04/30 08:40:23;;;;;;;5.40;3.23;;;;;;;8.64;26.88;101556.53;10051192;29;20640;-81
2022/04/30 08:45:26;;;;;;;4.07;2.73;;;;;;;9.15;26.63;101560.19;10042884;29;20324;-84
2022/04/30 08:50:29;;;;;;;6.60;4.70;;;;;;;9.24;26.64;101565.81;10012441;29;20283;-81
2022/04/30 08:55:33;;;;;;;6.03;4.13;;;;;;;8.81;26.83;101566.97;10044241;29;20262;-84
2022/04/30 09:00:42;;;;;;;5.07;3.40;;;;;;;8.86;26.62;101569.63;10044192;29;20629;-81
2022/04/30 09:05:45;;;;;;;5.77;3.37;;;;;;;9.00;26.26;101569.34;10045083;29;20259;-82
2022/04/30 09:10:48;;;;;;;4.13;3.27;;;;;;;8.52;27.16;101564.94;10047800;29;20226;-80
2022/04/30 09:15:53;;;;;;;3.90;2.87;;;;;;;8.71;26.10;101555.97;10030037;29;20202;-83
2022/04/30 09:20:55;;;;;;;7.90;4.13;;;;;;;9.73;25.54;101539.22;10044034;29;20226;-87
2022/04/30 09:26:02;;;;;;;7.87;5.20;;;;;;;8.41;27.57;101554.28;10043398;29;20210;-82
2022/04/30 09:31:10;;;;;;;8.77;5.77;;;;;;;9.64;26.26;101549.88;10057477;29;20238;-86
2022/04/30 09:41:33;;;;;;;5.07;3.10;;;;;;;9.62;25.22;101525.75;10060634;29;20259;-85
2022/04/30 09:46:37;;;;;;;5.77;4.10;;;;;;;9.05;25.69;101527.28;10044163;29;20203;-84
2022/04/30 09:57:00;;;;;;;3.77;2.77;;;;;;;9.65;25.73;101522.22;10047620;29;20263;-87
2022/04/30 10:02:07;;;;;;;5.17;3.07;;;;;;;9.90;24.77;101506.84;10026322;29;20207;-83
2022/04/30 10:07:10;;;;;;;6.97;3.50;;;;;;;10.01;24.61;101507.19;10038231;29;20202;-85
2022/04/30 10:13:09;;;;;;;3.30;2.60;;;;;;;10.19;24.30;101516.41;10054485;29;20198;-86
2022/04/30 10:18:13;;;;;;;5.00;3.30;;;;;;;10.20;25.80;101512.38;9936595;29;20587;-84
2022/04/30 10:23:20;;;;;;;6.00;4.03;;;;;;;8.86;25.24;101520.41;10016851;29;20231;-82
2022/04/30 10:28:23;;;;;;;3.50;2.73;;;;;;;9.76;24.54;101512.03;10043641;29;20223;-81
2022/04/30 10:33:26;;;;;;;3.83;3.27;;;;;;;10.14;23.45;101503.19;10042591;29;20239;-83
2022/04/30 10:38:28;;;;;;;11.55;3.55;;;;;;;11.13;23.17;101496.97;10025854;29;20199;-81
2022/04/30 10:43:37;;;;;;;4.20;2.40;;;;;;;10.59;23.81;101499.38;10064162;29;20259;-83
2022/04/30 10:48:39;;;;;;;2.63;2.43;;;;;;;8.60;26.02;101495.81;10054923;29;20240;-81
2022/04/30 10:53:46;;;;;;;6.53;4.83;;;;;;;10.59;23.76;101483.09;10051577;29;20199;-84
2022/04/30 10:58:52;;;;;;;4.30;3.90;;;;;;;10.71;22.89;101474.50;10061195;29;20210;-87
2022/04/30 11:03:54;;;;;;;5.23;2.80;;;;;;;11.33;22.82;101467.38;10048290;29;20206;-88
2022/04/30 11:09:02;;;;;;;2.87;2.67;;;;;;;10.80;23.13;101466.66;10058966;29;20210;-88
2022/04/30 11:14:09;;;;;;;6.27;2.97;;;;;;;10.73;24.29;101460.69;10061014;29;20203;-89
2022/04/30 11:19:13;;;;;;;4.33;2.70;;;;;;;9.53;25.31;101465.22;10028313;29;20258;-87
2022/04/30 11:24:26;;;;;;;2.47;2.27;;;;;;;10.50;23.45;101445.28;10034853;29;20490;-87
2022/04/30 11:29:30;;;;;;;4.03;2.83;;;;;;;10.72;23.02;101447.63;10044609;29;20219;-85
2022/04/30 11:34:38;;;;;;;6.33;2.50;;;;;;;11.25;23.98;101442.66;10050369;29;20287;-82
2022/04/30 11:39:44;;;;;;;4.90;2.90;;;;;;;11.21;22.22;101436.03;10029523;29;20255;-84
2022/04/30 11:44:46;;;;;;;3.57;2.53;;;;;;;9.89;23.77;101431.06;10049646;29;20207;-82
2022/04/30 11:49:49;;;;;;;3.75;2.83;;;;;;;10.82;23.27;101426.34;10058939;29;20245;-83
2022/04/30 11:54:51;;;;;;;4.00;2.33;;;;;;;11.18;22.69;101419.63;10035856;29;20249;-88
2022/04/30 11:59:55;;;;;;;3.07;2.47;;;;;;;10.52;23.41;101420.09;10026472;29;20199;-85
2022/04/30 12:05:04;;;;;;;4.33;2.70;;;;;;;10.59;23.75;101423.19;10064370;29;20205;-82
2022/04/30 12:10:18;;;;;;;3.13;2.83;;;;;;;10.89;23.63;101420.81;10044120;29;20596;-84
2022/04/30 12:15:26;;;;;;;3.40;3.10;;;;;;;11.11;23.27;101411.69;10038846;29;20238;-81
2022/04/30 12:26:05;;;;;;;2.97;2.60;;;;;;;10.91;23.14;101400.47;10074743;29;20231;-81
2022/04/30 12:31:13;;;;;;;2.30;2.10;;;;;;;11.09;22.08;101398.97;10044393;29;20281;-82
2022/04/30 12:36:17;;;;;;;2.10;1.80;;;;;;;11.72;22.25;101388.47;10033353;29;20301;-83
2022/04/30 12:41:19;;;;;;;2.27;1.93;;;;;;;12.45;21.31;101384.09;10056991;29;20194;-86
2022/04/30 12:46:22;;;;;;;4.03;2.70;;;;;;;12.19;21.71;101379.00;10064796;29;20309;-79
2022/04/30 12:51:28;;;;;;;3.97;2.13;;;;;;;12.88;20.90;101366.66;10075198;29;20302;-84
2022/04/30 12:56:31;;;;;;;3.93;2.47;;;;;;;11.97;21.75;101366.19;10054175;29;20552;-87
2022/04/30 13:01:34;;;;;;;3.03;1.77;;;;;;;11.58;21.40;101370.13;10067400;29;20305;-84
2022/04/30 13:06:37;;;;;;;5.50;3.10;;;;;;;12.50;20.93;101360.91;10030617;29;20215;-88
2022/04/30 13:17:00;;;;;;;3.67;1.90;;;;;;;11.67;21.71;101347.88;10060191;29;20282;-88
2022/04/30 13:22:03;;;;;;;5.00;2.38;;;;;;;12.09;21.59;101346.09;10058496;29;20226;-86
2022/04/30 13:27:06;;;;;;;2.60;1.40;;;;;;;12.35;20.44;101338.91;10060928;29;20542;-87
2022/04/30 13:32:10;;;;;;;2.75;1.67;;;;;;;11.91;20.80;101330.50;10044306;29;20251;-86
2022/04/30 13:37:12;;;;;;;2.77;1.43;;;;;;;12.45;20.49;101329.72;10041515;29;20206;-86
2022/04/30 13:42:15;;;;;;;2.03;1.93;;;;;;;11.75;21.34;101329.72;10062453;29;20631;-85
2022/04/30 13:47:17;;;;;;;2.90;1.83;;;;;;;11.15;21.44;101323.25;10034299;29;20255;-86
2022/04/30 13:52:19;;;;;;;3.47;1.87;;;;;;;11.26;22.36;101318.66;10055392;29;20602;-86
2022/04/30 13:57:22;;;;;;;3.53;1.80;;;;;;;11.35;21.19;101310.75;10036810;29;20226;-86
2022/04/30 14:02:25;;;;;;;1.90;1.70;;;;;;;12.14;20.78;101302.91;10037659;29;20214;-84
2022/04/30 14:07:28;;;;;;;3.97;1.50;;;;;;;12.01;20.72;101303.38;10053570;29;20262;-88
2022/04/30 14:12:30;;;;;;;2.97;1.90;;;;;;;11.57;21.23;101311.31;10056331;29;20247;-81
2022/04/30 14:22:54;;;;;;;1.70;1.60;;;;;;;12.45;20.91;101301.09;10040218;29;20278;-84
2022/04/30 14:27:56;;;;;;;2.33;1.70;;;;;;;12.59;20.65;101290.78;10023072;29;20610;-81
2022/04/30 14:32:58;;;;;;;2.53;1.87;;;;;;;10.98;22.10;101292.22;10035066;29;20492;-84
2022/04/30 14:38:01;;;;;;;2.83;2.10;;;;;;;11.94;21.25;101286.88;10037854;29;20871;-82
2022/04/30 14:43:03;;;;;;;2.60;1.67;;;;;;;12.93;20.04;101282.47;10029560;29;20696;-82
2022/04/30 14:48:06;;;;;;;2.43;1.57;;;;;;;12.52;19.79;101275.50;10032429;29;20225;-85
2022/04/30 14:53:08;;;;;;;3.05;1.35;;;;;;;12.69;20.40;101271.34;10036327;29;20619;-84
2022/04/30 14:58:10;;;;;;;2.47;1.50;;;;;;;12.95;19.60;101257.97;10025338;29;20290;-82
2022/04/30 15:03:13;;;;;;;2.35;2.03;;;;;;;12.50;20.46;101261.56;10042786;29;20824;-86
2022/04/30 15:08:16;;;;;;;4.38;1.83;;;;;;;12.23;20.28;101266.34;10058704;29;20231;-84
2022/04/30 15:13:18;;;;;;;2.05;1.50;;;;;;;12.07;20.81;101268.44;10020343;29;20684;-81
2022/04/30 15:18:20;;;;;;;2.80;1.83;;;;;;;12.73;20.33;101260.81;10031474;29;20753;-85
2022/04/30 15:23:23;;;;;;;3.23;1.60;;;;;;;13.10;20.00;101258.22;10009258;29;20338;-85
2022/04/30 15:28:26;;;;;;;3.97;1.83;;;;;;;13.21;19.70;101256.34;10029200;29;20286;-83
2022/04/30 15:33:28;;;;;;;2.27;1.43;;;;;;;12.09;20.54;101260.31;10030029;29;20672;-82
2022/04/30 15:38:30;;;;;;;2.03;1.70;;;;;;;12.77;20.62;101253.13;10024464;29;20291;-84
2022/04/30 15:43:34;;;;;;;2.65;1.70;;;;;;;12.62;20.31;101249.13;10040177;29;20750;-84
2022/04/30 15:53:58;;;;;;;4.90;1.45;;;;;;;12.80;19.81;101241.72;10012263;29;20257;-82
2022/04/30 15:59:00;;;;;;;2.53;1.67;;;;;;;12.92;19.90;101232.16;10040350;29;20672;-84
2022/04/30 16:04:02;;;;;;;2.47;1.55;;;;;;;12.85;20.40;101235.69;10002595;29;20944;-83
2022/04/30 16:09:05;;;;;;;4.57;1.50;;;;;;;12.68;20.38;101236.19;10001108;29;20254;-85
2022/04/30 16:14:07;;;;;;;5.10;1.60;;;;;;;13.09;19.31;101230.78;10061326;29;20265;-86
2022/04/30 16:19:10;;;;;;;2.50;2.25;;;;;;;12.38;20.87;101236.00;10039948;29;20290;-88
2022/04/30 16:24:12;;;;;;;3.03;2.07;;;;;;;12.43;20.28;101234.84;10047661;29;20195;-86
2022/04/30 16:29:16;;;;;;;3.38;1.80;;;;;;;12.50;21.10;101235.00;10053304;29;20674;-86
2022/04/30 16:34:19;;;;;;;3.80;1.80;;;;;;;10.70;23.72;101240.88;10070995;29;20230;-83
2022/04/30 16:39:28;;;;;;;5.03;2.20;;;;;;;11.97;21.87;101233.84;10029954;29;20198;-88
2022/04/30 16:44:31;;;;;;;3.10;2.43;;;;;;;11.80;21.96;101229.38;10034210;29;20207;-86
2022/04/30 16:49:33;;;;;;;7.23;2.30;;;;;;;12.05;22.36;101238.50;10026076;29;20910;-86
2022/04/30 16:59:56;;;;;;;2.57;1.70;;;;;;;11.42;22.00;101245.22;10054401;29;20258;-82
2022/04/30 17:04:58;;;;;;;3.70;2.20;;;;;;;11.88;22.18;101239.78;10038040;29;20242;-87
2022/04/30 17:10:05;;;;;;;6.00;2.03;;;;;;;11.97;22.38;101234.69;10037416;29;20249;-87
2022/04/30 17:15:08;;;;;;;4.67;2.53;;;;;;;11.65;21.78;101235.97;10025636;29;20252;-84
2022/04/30 17:20:12;;;;;;;3.50;2.33;;;;;;;11.62;22.66;101237.56;10020024;29;20273;-88
2022/04/30 17:25:15;;;;;;;4.57;2.47;;;;;;;11.19;23.12;101235.66;10048675;29;20207;-85
2022/04/30 17:30:18;;;;;;;5.43;2.93;;;;;;;11.99;22.78;101235.13;10017567;29;20247;-88
2022/04/30 17:40:42;;;;;;;5.93;2.60;;;;;;;11.19;23.04;101244.22;10056750;29;20210;-85
2022/04/30 17:45:46;;;;;;;9.40;8.47;;;;;;;11.89;22.47;101239.41;10034605;29;20231;-86
2022/04/30 17:50:49;;;;;;;29.53;26.73;;;;;;;11.11;23.56;101248.94;10010310;29;20242;-87
2022/04/30 17:55:53;;;;;;;18.40;16.60;;;;;;;11.04;23.68;101248.75;10022091;29;20278;-86
2022/04/30 18:00:55;;;;;;;15.83;13.53;;;;;;;11.60;23.41;101247.72;10028398;29;20238;-87
2022/04/30 18:05:58;;;;;;;14.17;10.93;;;;;;;11.59;23.60;101252.59;10021262;29;20357;-83
2022/04/30 18:11:00;;;;;;;11.87;10.33;;;;;;;10.82;24.03;101264.47;10030414;29;20250;-85
2022/04/30 18:16:02;;;;;;;5.67;5.10;;;;;;;11.29;23.58;101263.66;10044807;29;20221;-85
2022/04/30 18:21:05;;;;;;;9.97;7.63;;;;;;;10.21;24.76;101269.63;10036852;29;20225;-87
2022/04/30 18:26:10;;;;;;;10.20;8.17;;;;;;;10.75;24.31;101263.41;10030276;29;20230;-85
2022/04/30 18:31:13;;;;;;;4.77;4.13;;;;;;;11.18;24.00;101277.66;10034721;29;20309;-87
2022/04/30 18:36:15;;;;;;;6.33;4.07;;;;;;;10.70;25.72;101273.09;10046677;29;20259;-86
2022/04/30 18:41:17;;;;;;;10.83;9.73;;;;;;;10.82;24.89;101275.06;10023736;29;20206;-87
2022/04/30 18:46:21;;;;;;;20.10;17.73;;;;;;;10.47;26.07;101286.25;10028080;29;20238;-88
2022/04/30 18:51:28;;;;;;;9.40;6.00;;;;;;;10.56;25.91;101284.09;10028589;29;20254;-84
2022/04/30 19:01:51;;;;;;;17.67;13.00;;;;;;;10.10;26.50;101292.06;10027211;29;20266;-88
2022/04/30 19:06:54;;;;;;;47.20;34.43;;;;;;;10.41;26.38;101304.84;10038042;29;20227;-84
2022/04/30 19:11:56;;;;;;;35.83;28.87;;;;;;;9.95;26.54;101312.78;10006580;29;20310;-86
2022/04/30 19:17:01;;;;;;;21.80;17.00;;;;;;;10.33;26.53;101309.53;10029754;29;20234;-82
2022/04/30 19:22:08;;;;;;;12.40;11.10;;;;;;;10.51;26.13;101310.03;10010319;29;20739;-84
2022/04/30 19:27:11;;;;;;;56.70;50.50;;;;;;;10.20;27.08;101324.19;10042230;29;20268;-84
2022/04/30 19:32:15;;;;;;;21.37;18.17;;;;;;;9.88;27.55;101329.66;10041358;29;20290;-85
2022/04/30 19:37:17;;;;;;;9.83;8.33;;;;;;;8.91;29.36;101326.69;10014034;29;20290;-88
2022/04/30 19:42:20;;;;;;;8.10;5.90;;;;;;;8.59;29.71;101332.03;10044727;29;20244;-87
2022/04/30 19:47:33;;;;;;;13.77;9.70;;;;;;;9.60;28.30;101332.41;10032394;29;20287;-84
2022/04/30 19:52:35;;;;;;;15.50;12.63;;;;;;;10.06;28.04;101316.81;10040450;29;20276;-84
2022/04/30 19:57:39;;;;;;;22.87;19.63;;;;;;;9.61;28.20;101328.38;10045649;29;20231;-83
2022/04/30 20:02:41;;;;;;;15.53;12.03;;;;;;;9.71;28.17;101329.91;10040276;29;20534;-85
2022/04/30 20:07:44;;;;;;;12.23;8.93;;;;;;;10.52;26.73;101328.81;10027615;29;20268;-85
2022/04/30 20:18:07;;;;;;;67.63;53.03;;;;;;;10.18;27.91;101318.00;10055578;29;20238;-84
2022/04/30 20:23:10;;;;;;;19.53;16.77;;;;;;;10.18;27.83;101327.38;10009052;29;20224;-86
2022/04/30 20:28:15;;;;;;;24.03;20.07;;;;;;;9.93;27.99;101328.59;10047965;29;20672;-87
2022/04/30 20:38:44;;;;;;;11.47;8.60;;;;;;;10.22;27.98;101325.44;10041284;29;20226;-89
2022/04/30 20:43:47;;;;;;;11.87;10.23;;;;;;;10.19;27.78;101331.06;10040673;29;20206;-83
2022/04/30 20:48:49;;;;;;;8.50;7.70;;;;;;;9.84;27.92;101331.56;10038342;29;20259;-82
2022/04/30 20:53:55;;;;;;;74.80;52.67;;;;;;;9.90;27.90;101330.13;10049996;29;20269;-83
2022/04/30 20:58:57;;;;;;;13.13;10.23;;;;;;;9.82;28.27;101333.94;10052789;29;20242;-83
2022/04/30 21:04:00;;;;;;;13.07;8.63;;;;;;;9.42;28.82;101326.09;10045382;29;20234;-86
2022/04/30 21:09:02;;;;;;;10.63;7.40;;;;;;;9.58;28.71;101319.69;10060976;29;20255;-82
2022/04/30 21:14:04;;;;;;;13.07;10.17;;;;;;;9.57;28.81;101320.88;10048188;29;20562;-82
2022/04/30 21:19:09;;;;;;;9.73;7.80;;;;;;;9.61;29.19;101321.84;10045008;29;20524;-82
2022/04/30 21:24:12;;;;;;;12.97;10.43;;;;;;;9.28;28.92;101319.91;10045409;29;20195;-83
2022/04/30 21:29:14;;;;;;;9.13;7.50;;;;;;;9.73;28.24;101319.81;10058204;29;20234;-84
2022/04/30 21:34:16;;;;;;;14.57;10.17;;;;;;;9.40;29.33;101317.06;10040280;29;20230;-84
2022/04/30 21:39:18;;;;;;;59.60;36.27;;;;;;;9.69;28.20;101315.19;10035530;29;20741;-83
2022/04/30 21:44:25;;;;;;;13.07;8.83;;;;;;;9.59;28.55;101318.50;10036825;29;20215;-82
2022/04/30 21:49:27;;;;;;;6.60;5.70;;;;;;;9.63;28.73;101302.38;10033451;29;20223;-81
2022/04/30 21:59:56;;;;;;;9.90;6.30;;;;;;;9.54;29.67;101304.53;10052789;29;20266;-82
2022/04/30 22:05:00;;;;;;;10.17;7.00;;;;;;;9.52;29.03;101301.19;10073104;29;20270;-86
2022/04/30 22:10:02;;;;;;;8.53;5.67;;;;;;;9.74;28.36;101301.53;10045877;29;21400;-86
2022/04/30 22:15:05;;;;;;;8.10;5.93;;;;;;;8.62;29.80;101296.38;10074583;29;20197;-85
2022/04/30 22:20:08;;;;;;;9.70;5.60;;;;;;;8.58;30.36;101296.25;10032516;29;20282;-83
2022/04/30 22:25:10;;;;;;;8.60;6.50;;;;;;;8.89;29.32;101294.94;10042736;29;20206;-83
2022/04/30 22:30:12;;;;;;;10.10;6.27;;;;;;;8.92;30.57;101295.06;10042070;29;20716;-83
2022/04/30 22:35:16;;;;;;;9.57;6.60;;;;;;;8.92;30.38;101299.91;10058282;29;20229;-82
2022/04/30 22:45:39;;;;;;;8.53;6.13;;;;;;;6.95;32.65;101306.63;10056739;29;20269;-82
2022/04/30 22:50:41;;;;;;;8.57;5.83;;;;;;;7.19;33.70;101298.38;10045260;29;20294;-84
2022/04/30 22:55:44;;;;;;;8.77;5.90;;;;;;;8.70;30.45;101299.13;10042184;29;20222;-83
2022/04/30 23:00:46;;;;;;;8.77;5.83;;;;;;;8.04;31.59;101298.22;10046824;29;20305;-84
2022/04/30 23:05:48;;;;;;;10.23;6.23;;;;;;;9.37;29.24;101288.47;10064448;29;20198;-84
2022/04/30 23:10:51;;;;;;;6.90;5.67;;;;;;;9.13;30.12;101295.00;10023515;29;20652;-84
2022/04/30 23:15:53;;;;;;;11.57;6.13;;;;;;;8.83;30.16;101287.81;10027495;29;20242;-82
2022/04/30 23:20:55;;;;;;;6.77;5.63;;;;;;;8.32;31.20;101298.50;10047644;29;20234;-82
2022/04/30 23:25:57;;;;;;;10.43;5.87;;;;;;;7.79;32.27;101297.22;10044810;29;20294;-82
2022/04/30 23:31:00;;;;;;;7.50;5.90;;;;;;;7.59;32.46;101300.88;10048038;29;20257;-82
2022/04/30 23:36:03;;;;;;;6.37;5.70;;;;;;;7.84;31.89;101297.03;10043087;29;20298;-81
2022/04/30 23:41:05;;;;;;;9.37;6.47;;;;;;;7.78;32.20;101287.03;10047467;29;20250;-81
2022/04/30 23:46:07;;;;;;;8.23;6.17;;;;;;;7.15;33.03;101293.69;10065269;29;20226;-82
2022/04/30 23:51:10;;;;;;;9.50;6.20;;;;;;;7.46;32.50;101290.59;10047924;29;20564;-81
2022/04/30 23:56:12;;;;;;;15.23;7.00;;;;;;;7.80;31.83;101287.53;10046409;29;20238;-82
